Terminal Aerodrome Forecast
Issued by NWS Louisville, KY

Home | Current Version | Previous Version | Text Only | Print | Product List | Glossary On
Versions: 1 2 3 4 5 6 7 8 9 10 11 12 13 14 15 16 17
000
FTUS43 KLMK 191400 AAA
TAFLEX
TAF AMD
KLEX 191401Z 1914/2012 26005KT 3SM HZ BKN005
     FM191500 25008KT 5SM HZ BKN015
     FM191700 25008KT P6SM BKN040
     FM200100 23005KT P6SM SCT035 BKN080=

USA.gov is the U.S. government's official web portal to all federal, state and local government web resources and services.